sensor_id;sensor_type;location;lat;lon;timestamp;temperature;humidity
21635;DHT22;10979;48.306;9.830;2022-12-07T00:01:37;2.30;99.90
21635;DHT22;10979;48.306;9.830;2022-12-07T00:04:04;2.40;99.90
21635;DHT22;10979;48.306;9.830;2022-12-07T00:06:38;2.40;99.90
21635;DHT22;10979;48.306;9.830;2022-12-07T00:09:06;2.40;99.90
21635;DHT22;10979;48.306;9.830;2022-12-07T00:11:32;2.30;99.90
21635;DHT22;10979;48.306;9.830;2022-12-07T00:14:01;2.40;99.90
21635;DHT22;10979;48.306;9.830;2022-12-07T00:16:29;2.30;99.90
21635;DHT22;10979;48.306;9.830;2022-12-07T00:18:55;2.40;99.90
21635;DHT22;10979;48.306;9.830;2022-12-07T00:21:23;2.40;99.90
21635;DHT22;10979;48.306;9.830;2022-12-07T00:23:50;2.30;99.90
21635;DHT22;10979;48.306;9.830;2022-12-07T00:26:18;2.30;99.90
21635;DHT22;10979;48.306;9.830;2022-12-07T00:28:55;2.30;99.90
21635;DHT22;10979;48.306;9.830;2022-12-07T00:31:24;2.20;99.90
21635;DHT22;10979;48.306;9.830;2022-12-07T00:33:50;2.20;99.90
21635;DHT22;10979;48.306;9.830;2022-12-07T00:36:18;2.20;99.90
21635;DHT22;10979;48.306;9.830;2022-12-07T00:38:44;2.20;99.90
21635;DHT22;10979;48.306;9.830;2022-12-07T00:41:20;2.20;99.90
21635;DHT22;10979;48.306;9.830;2022-12-07T00:43:47;2.20;99.90
21635;DHT22;10979;48.306;9.830;2022-12-07T00:46:14;2.10;99.90
21635;DHT22;10979;48.306;9.830;2022-12-07T00:48:41;2.20;99.90
21635;DHT22;10979;48.306;9.830;2022-12-07T00:51:07;2.20;99.90
21635;DHT22;10979;48.306;9.830;2022-12-07T00:53:36;2.20;99.90
21635;DHT22;10979;48.306;9.830;2022-12-07T00:56:08;2.10;99.90
21635;DHT22;10979;48.306;9.830;2022-12-07T00:58:34;2.10;99.90
21635;DHT22;10979;48.306;9.830;2022-12-07T01:01:02;2.10;99.90
21635;DHT22;10979;48.306;9.830;2022-12-07T01:03:28;2.20;99.90
21635;DHT22;10979;48.306;9.830;2022-12-07T01:05:55;2.20;99.90
21635;DHT22;10979;48.306;9.830;2022-12-07T01:08:21;2.20;99.90
21635;DHT22;10979;48.306;9.830;2022-12-07T01:10:47;2.20;99.90
21635;DHT22;10979;48.306;9.830;2022-12-07T01:13:13;2.20;99.90
21635;DHT22;10979;48.306;9.830;2022-12-07T01:15:44;2.20;99.90
21635;DHT22;10979;48.306;9.830;2022-12-07T01:18:10;2.10;99.90
21635;DHT22;10979;48.306;9.830;2022-12-07T01:20:36;2.20;99.90
21635;DHT22;10979;48.306;9.830;2022-12-07T01:23:02;2.20;99.90
21635;DHT22;10979;48.306;9.830;2022-12-07T01:25:28;2.20;99.90
21635;DHT22;10979;48.306;9.830;2022-12-07T01:27:53;2.20;99.90
21635;DHT22;10979;48.306;9.830;2022-12-07T01:30:19;2.20;99.90
21635;DHT22;10979;48.306;9.830;2022-12-07T01:32:44;2.20;99.90
21635;DHT22;10979;48.306;9.830;2022-12-07T01:35:10;2.10;99.90
21635;DHT22;10979;48.306;9.830;2022-12-07T01:37:36;2.20;99.90
21635;DHT22;10979;48.306;9.830;2022-12-07T01:40:04;2.20;99.90
21635;DHT22;10979;48.306;9.830;2022-12-07T01:42:30;2.20;99.90
21635;DHT22;10979;48.306;9.830;2022-12-07T01:48:03;2.30;99.90
21635;DHT22;10979;48.306;9.830;2022-12-07T01:50:29;2.30;99.90
21635;DHT22;10979;48.306;9.830;2022-12-07T01:52:59;2.30;99.90
21635;DHT22;10979;48.306;9.830;2022-12-07T01:55:26;2.30;99.90
21635;DHT22;10979;48.306;9.830;2022-12-07T01:57:53;2.30;99.90
21635;DHT22;10979;48.306;9.830;2022-12-07T02:00:19;2.30;99.90
21635;DHT22;10979;48.306;9.830;2022-12-07T02:05:29;2.40;99.90
21635;DHT22;10979;48.306;9.830;2022-12-07T02:07:56;2.30;99.90
21635;DHT22;10979;48.306;9.830;2022-12-07T02:10:30;2.30;99.90
21635;DHT22;10979;48.306;9.830;2022-12-07T02:13:03;2.20;99.90
21635;DHT22;10979;48.306;9.830;2022-12-07T02:21:14;2.20;99.90
21635;DHT22;10979;48.306;9.830;2022-12-07T02:24:08;2.20;99.90
21635;DHT22;10979;48.306;9.830;2022-12-07T02:29:49;2.20;99.90
21635;DHT22;10979;48.306;9.830;2022-12-07T02:32:26;2.20;99.90
21635;DHT22;10979;48.306;9.830;2022-12-07T02:35:02;2.30;99.90
21635;DHT22;10979;48.306;9.830;2022-12-07T02:40:38;2.20;99.90
21635;DHT22;10979;48.306;9.830;2022-12-07T02:43:10;2.20;99.90
21635;DHT22;10979;48.306;9.830;2022-12-07T02:45:39;2.20;99.90
21635;DHT22;10979;48.306;9.830;2022-12-07T02:48:06;2.30;99.90
21635;DHT22;10979;48.306;9.830;2022-12-07T02:50:33;2.30;99.90
21635;DHT22;10979;48.306;9.830;2022-12-07T02:52:58;2.30;99.90
21635;DHT22;10979;48.306;9.830;2022-12-07T02:55:36;2.30;99.90
21635;DHT22;10979;48.306;9.830;2022-12-07T02:58:19;2.30;99.90
21635;DHT22;10979;48.306;9.830;2022-12-07T03:01:04;2.30;99.90
21635;DHT22;10979;48.306;9.830;2022-12-07T03:03:35;2.30;99.90
21635;DHT22;10979;48.306;9.830;2022-12-07T03:06:16;2.40;99.90
21635;DHT22;10979;48.306;9.830;2022-12-07T03:08:53;2.30;99.90
21635;DHT22;10979;48.306;9.830;2022-12-07T03:11:37;2.40;99.90
21635;DHT22;10979;48.306;9.830;2022-12-07T03:14:17;2.30;99.90
21635;DHT22;10979;48.306;9.830;2022-12-07T03:17:12;2.20;99.90
21635;DHT22;10979;48.306;9.830;2022-12-07T03:19:40;2.20;99.90
21635;DHT22;10979;48.306;9.830;2022-12-07T03:22:09;2.20;99.90
21635;DHT22;10979;48.306;9.830;2022-12-07T03:24:57;2.30;99.90
21635;DHT22;10979;48.306;9.830;2022-12-07T03:27:25;2.30;99.90
21635;DHT22;10979;48.306;9.830;2022-12-07T03:29:56;2.20;99.90
21635;DHT22;10979;48.306;9.830;2022-12-07T03:32:32;2.20;99.90
21635;DHT22;10979;48.306;9.830;2022-12-07T03:35:04;2.20;99.90
21635;DHT22;10979;48.306;9.830;2022-12-07T03:37:39;2.20;99.90
21635;DHT22;10979;48.306;9.830;2022-12-07T03:40:14;2.20;99.90
21635;DHT22;10979;48.306;9.830;2022-12-07T03:42:41;2.20;99.90
21635;DHT22;10979;48.306;9.830;2022-12-07T03:45:08;2.20;99.90
21635;DHT22;10979;48.306;9.830;2022-12-07T03:47:46;2.30;99.90
21635;DHT22;10979;48.306;9.830;2022-12-07T03:50:26;2.30;99.90
21635;DHT22;10979;48.306;9.830;2022-12-07T03:52:59;2.30;99.90
21635;DHT22;10979;48.306;9.830;2022-12-07T03:55:32;2.20;99.90
21635;DHT22;10979;48.306;9.830;2022-12-07T03:58:03;2.30;99.90
21635;DHT22;10979;48.306;9.830;2022-12-07T04:00:30;2.30;99.90
21635;DHT22;10979;48.306;9.830;2022-12-07T04:02:56;2.30;99.90
21635;DHT22;10979;48.306;9.830;2022-12-07T04:05:22;2.20;99.90
21635;DHT22;10979;48.306;9.830;2022-12-07T04:07:48;2.20;99.90
21635;DHT22;10979;48.306;9.830;2022-12-07T04:10:13;2.20;99.90
21635;DHT22;10979;48.306;9.830;2022-12-07T04:12:39;2.20;99.90
21635;DHT22;10979;48.306;9.830;2022-12-07T04:15:06;2.10;99.90
21635;DHT22;10979;48.306;9.830;2022-12-07T04:17:32;2.10;99.90
21635;DHT22;10979;48.306;9.830;2022-12-07T04:19:57;2.20;99.90
21635;DHT22;10979;48.306;9.830;2022-12-07T04:22:23;2.10;99.90
21635;DHT22;10979;48.306;9.830;2022-12-07T04:24:48;2.10;99.90
21635;DHT22;10979;48.306;9.830;2022-12-07T04:27:14;2.30;99.90
21635;DHT22;10979;48.306;9.830;2022-12-07T04:29:39;2.20;99.90
21635;DHT22;10979;48.306;9.830;2022-12-07T04:32:05;2.20;99.90
21635;DHT22;10979;48.306;9.830;2022-12-07T04:34:31;2.10;99.90
21635;DHT22;10979;48.306;9.830;2022-12-07T04:36:57;2.10;99.90
21635;DHT22;10979;48.306;9.830;2022-12-07T04:39:28;2.10;99.90
21635;DHT22;10979;48.306;9.830;2022-12-07T04:41:54;2.10;99.90
21635;DHT22;10979;48.306;9.830;2022-12-07T04:44:21;2.10;99.90
21635;DHT22;10979;48.306;9.830;2022-12-07T04:46:47;2.00;99.90
21635;DHT22;10979;48.306;9.830;2022-12-07T04:49:14;2.00;99.90
21635;DHT22;10979;48.306;9.830;2022-12-07T04:51:39;2.00;99.90
21635;DHT22;10979;48.306;9.830;2022-12-07T04:54:05;2.00;99.90
21635;DHT22;10979;48.306;9.830;2022-12-07T04:56:32;2.00;99.90
21635;DHT22;10979;48.306;9.830;2022-12-07T04:58:57;2.00;99.90
21635;DHT22;10979;48.306;9.830;2022-12-07T05:01:23;2.00;99.90
21635;DHT22;10979;48.306;9.830;2022-12-07T05:03:49;2.00;99.90
21635;DHT22;10979;48.306;9.830;2022-12-07T05:06:15;1.90;99.90
21635;DHT22;10979;48.306;9.830;2022-12-07T05:08:41;1.90;99.90
21635;DHT22;10979;48.306;9.830;2022-12-07T05:11:08;1.80;99.90
21635;DHT22;10979;48.306;9.830;2022-12-07T05:13:35;1.80;99.90
21635;DHT22;10979;48.306;9.830;2022-12-07T05:16:01;1.80;99.90
21635;DHT22;10979;48.306;9.830;2022-12-07T05:18:27;1.80;99.90
21635;DHT22;10979;48.306;9.830;2022-12-07T05:20:53;1.80;99.90
21635;DHT22;10979;48.306;9.830;2022-12-07T05:23:18;1.80;99.90
21635;DHT22;10979;48.306;9.830;2022-12-07T05:25:45;1.70;99.90
21635;DHT22;10979;48.306;9.830;2022-12-07T05:28:11;1.80;99.90
21635;DHT22;10979;48.306;9.830;2022-12-07T05:30:36;1.60;99.90
21635;DHT22;10979;48.306;9.830;2022-12-07T05:33:02;1.60;99.90
21635;DHT22;10979;48.306;9.830;2022-12-07T05:35:28;1.70;99.90
21635;DHT22;10979;48.306;9.830;2022-12-07T05:37:55;1.70;99.90
21635;DHT22;10979;48.306;9.830;2022-12-07T05:40:20;1.70;99.90
21635;DHT22;10979;48.306;9.830;2022-12-07T05:42:46;1.60;99.90
21635;DHT22;10979;48.306;9.830;2022-12-07T05:45:12;1.60;99.90
21635;DHT22;10979;48.306;9.830;2022-12-07T05:47:37;1.60;99.90
21635;DHT22;10979;48.306;9.830;2022-12-07T05:50:05;1.60;99.90
21635;DHT22;10979;48.306;9.830;2022-12-07T05:52:30;1.60;99.90
21635;DHT22;10979;48.306;9.830;2022-12-07T05:54:56;1.50;99.90
21635;DHT22;10979;48.306;9.830;2022-12-07T05:57:21;1.50;99.90
21635;DHT22;10979;48.306;9.830;2022-12-07T05:59:47;1.40;99.90
21635;DHT22;10979;48.306;9.830;2022-12-07T06:02:15;1.40;99.90
21635;DHT22;10979;48.306;9.830;2022-12-07T06:04:44;1.30;99.90
21635;DHT22;10979;48.306;9.830;2022-12-07T06:07:11;1.20;99.90
21635;DHT22;10979;48.306;9.830;2022-12-07T06:09:37;1.20;99.90
21635;DHT22;10979;48.306;9.830;2022-12-07T06:12:04;1.10;99.90
21635;DHT22;10979;48.306;9.830;2022-12-07T06:14:49;1.20;99.90
21635;DHT22;10979;48.306;9.830;2022-12-07T06:17:15;1.00;99.90
21635;DHT22;10979;48.306;9.830;2022-12-07T06:19:41;1.00;99.90
21635;DHT22;10979;48.306;9.830;2022-12-07T06:22:06;0.90;99.90
21635;DHT22;10979;48.306;9.830;2022-12-07T06:24:33;0.90;99.90
21635;DHT22;10979;48.306;9.830;2022-12-07T06:26:59;0.90;99.90
21635;DHT22;10979;48.306;9.830;2022-12-07T06:29:24;1.00;99.90
21635;DHT22;10979;48.306;9.830;2022-12-07T06:31:50;1.00;99.90
21635;DHT22;10979;48.306;9.830;2022-12-07T06:34:18;1.00;99.90
21635;DHT22;10979;48.306;9.830;2022-12-07T06:36:47;0.90;99.90
21635;DHT22;10979;48.306;9.830;2022-12-07T06:39:21;0.90;99.90
21635;DHT22;10979;48.306;9.830;2022-12-07T06:41:47;0.90;99.90
21635;DHT22;10979;48.306;9.830;2022-12-07T06:44:12;1.00;99.90
21635;DHT22;10979;48.306;9.830;2022-12-07T06:46:38;1.00;99.90
21635;DHT22;10979;48.306;9.830;2022-12-07T06:49:04;1.00;99.90
21635;DHT22;10979;48.306;9.830;2022-12-07T06:51:31;0.90;99.90
21635;DHT22;10979;48.306;9.830;2022-12-07T06:53:57;0.90;99.90
21635;DHT22;10979;48.306;9.830;2022-12-07T06:56:23;0.90;99.90
21635;DHT22;10979;48.306;9.830;2022-12-07T06:58:48;0.80;99.90
21635;DHT22;10979;48.306;9.830;2022-12-07T07:01:16;0.80;99.90
21635;DHT22;10979;48.306;9.830;2022-12-07T07:03:43;0.80;99.90
21635;DHT22;10979;48.306;9.830;2022-12-07T07:06:09;0.80;99.90
21635;DHT22;10979;48.306;9.830;2022-12-07T07:08:35;0.80;99.90
21635;DHT22;10979;48.306;9.830;2022-12-07T07:11:01;0.70;99.90
21635;DHT22;10979;48.306;9.830;2022-12-07T07:13:27;0.70;99.90
21635;DHT22;10979;48.306;9.830;2022-12-07T07:15:53;0.80;99.90
21635;DHT22;10979;48.306;9.830;2022-12-07T07:18:19;0.70;99.90
21635;DHT22;10979;48.306;9.830;2022-12-07T07:20:44;0.80;99.90
21635;DHT22;10979;48.306;9.830;2022-12-07T07:23:10;0.70;99.90
21635;DHT22;10979;48.306;9.830;2022-12-07T07:25:35;0.70;99.90
21635;DHT22;10979;48.306;9.830;2022-12-07T07:28:01;0.70;99.90
21635;DHT22;10979;48.306;9.830;2022-12-07T07:30:27;0.60;99.90
21635;DHT22;10979;48.306;9.830;2022-12-07T07:33:00;0.40;99.90
21635;DHT22;10979;48.306;9.830;2022-12-07T07:35:27;0.30;99.90
21635;DHT22;10979;48.306;9.830;2022-12-07T07:37:53;0.30;99.90
21635;DHT22;10979;48.306;9.830;2022-12-07T07:40:19;0.30;99.90
21635;DHT22;10979;48.306;9.830;2022-12-07T07:42:47;0.30;99.90
21635;DHT22;10979;48.306;9.830;2022-12-07T07:45:13;0.50;99.90
21635;DHT22;10979;48.306;9.830;2022-12-07T07:47:39;0.60;99.90
21635;DHT22;10979;48.306;9.830;2022-12-07T07:50:05;0.70;99.90
21635;DHT22;10979;48.306;9.830;2022-12-07T07:52:31;0.60;99.90
21635;DHT22;10979;48.306;9.830;2022-12-07T07:54:56;0.80;99.90
21635;DHT22;10979;48.306;9.830;2022-12-07T07:57:22;3.10;99.90
21635;DHT22;10979;48.306;9.830;2022-12-07T07:59:47;4.90;99.90
21635;DHT22;10979;48.306;9.830;2022-12-07T08:02:19;5.90;99.90
21635;DHT22;10979;48.306;9.830;2022-12-07T08:04:45;6.10;99.90
21635;DHT22;10979;48.306;9.830;2022-12-07T08:07:12;3.50;99.90
21635;DHT22;10979;48.306;9.830;2022-12-07T08:09:38;2.20;99.90
21635;DHT22;10979;48.306;9.830;2022-12-07T08:12:04;1.90;99.90
21635;DHT22;10979;48.306;9.830;2022-12-07T08:14:30;1.90;99.90
21635;DHT22;10979;48.306;9.830;2022-12-07T08:16:56;2.80;99.90
21635;DHT22;10979;48.306;9.830;2022-12-07T08:19:22;2.40;99.90
21635;DHT22;10979;48.306;9.830;2022-12-07T08:21:48;5.20;99.90
21635;DHT22;10979;48.306;9.830;2022-12-07T08:24:14;7.90;99.90
21635;DHT22;10979;48.306;9.830;2022-12-07T08:26:39;8.70;99.90
21635;DHT22;10979;48.306;9.830;2022-12-07T08:29:05;7.40;99.90
21635;DHT22;10979;48.306;9.830;2022-12-07T08:31:31;4.70;99.90
21635;DHT22;10979;48.306;9.830;2022-12-07T08:33:57;5.40;99.90
21635;DHT22;10979;48.306;9.830;2022-12-07T08:36:22;4.60;99.90
21635;DHT22;10979;48.306;9.830;2022-12-07T08:38:49;4.20;99.90
21635;DHT22;10979;48.306;9.830;2022-12-07T08:41:15;3.90;99.90
21635;DHT22;10979;48.306;9.830;2022-12-07T08:43:40;3.80;99.90
21635;DHT22;10979;48.306;9.830;2022-12-07T08:46:55;3.70;99.90
21635;DHT22;10979;48.306;9.830;2022-12-07T08:49:08;3.80;99.90
21635;DHT22;10979;48.306;9.830;2022-12-07T08:51:34;3.70;99.90
21635;DHT22;10979;48.306;9.830;2022-12-07T08:54:03;3.70;99.90
21635;DHT22;10979;48.306;9.830;2022-12-07T08:56:29;3.60;99.90
21635;DHT22;10979;48.306;9.830;2022-12-07T08:58:55;3.80;99.90
21635;DHT22;10979;48.306;9.830;2022-12-07T09:01:20;3.80;99.90
21635;DHT22;10979;48.306;9.830;2022-12-07T09:03:46;4.00;99.90
21635;DHT22;10979;48.306;9.830;2022-12-07T09:06:11;3.90;99.90
21635;DHT22;10979;48.306;9.830;2022-12-07T09:08:45;4.00;99.90
21635;DHT22;10979;48.306;9.830;2022-12-07T09:11:11;4.10;99.90
21635;DHT22;10979;48.306;9.830;2022-12-07T09:13:37;4.10;99.90
21635;DHT22;10979;48.306;9.830;2022-12-07T09:16:02;4.10;99.90
21635;DHT22;10979;48.306;9.830;2022-12-07T09:18:28;4.00;99.90
21635;DHT22;10979;48.306;9.830;2022-12-07T09:20:53;4.00;99.90
21635;DHT22;10979;48.306;9.830;2022-12-07T09:23:19;4.10;99.90
21635;DHT22;10979;48.306;9.830;2022-12-07T09:25:44;4.40;99.90
21635;DHT22;10979;48.306;9.830;2022-12-07T09:28:10;4.60;99.90
21635;DHT22;10979;48.306;9.830;2022-12-07T09:30:35;4.70;99.90
21635;DHT22;10979;48.306;9.830;2022-12-07T09:33:01;4.90;99.90
21635;DHT22;10979;48.306;9.830;2022-12-07T09:35:27;4.80;99.90
21635;DHT22;10979;48.306;9.830;2022-12-07T09:37:53;5.00;99.90
21635;DHT22;10979;48.306;9.830;2022-12-07T09:40:20;5.10;99.90
21635;DHT22;10979;48.306;9.830;2022-12-07T09:42:51;5.00;99.90
21635;DHT22;10979;48.306;9.830;2022-12-07T09:45:39;4.70;99.90
21635;DHT22;10979;48.306;9.830;2022-12-07T09:48:05;4.70;99.90
21635;DHT22;10979;48.306;9.830;2022-12-07T09:50:34;4.70;99.90
21635;DHT22;10979;48.306;9.830;2022-12-07T09:53:15;4.80;99.90
21635;DHT22;10979;48.306;9.830;2022-12-07T09:55:41;4.80;99.90
21635;DHT22;10979;48.306;9.830;2022-12-07T09:58:24;4.90;99.90
21635;DHT22;10979;48.306;9.830;2022-12-07T10:00:55;4.90;99.90
21635;DHT22;10979;48.306;9.830;2022-12-07T10:03:22;4.90;99.90
21635;DHT22;10979;48.306;9.830;2022-12-07T10:05:49;4.90;99.90
21635;DHT22;10979;48.306;9.830;2022-12-07T10:08:16;4.90;99.90
21635;DHT22;10979;48.306;9.830;2022-12-07T10:10:43;4.80;99.90
21635;DHT22;10979;48.306;9.830;2022-12-07T10:13:14;4.80;99.90
21635;DHT22;10979;48.306;9.830;2022-12-07T10:15:55;4.70;99.90
21635;DHT22;10979;48.306;9.830;2022-12-07T10:18:36;4.60;99.90
21635;DHT22;10979;48.306;9.830;2022-12-07T10:21:03;4.50;99.90
21635;DHT22;10979;48.306;9.830;2022-12-07T10:23:29;4.40;99.90
21635;DHT22;10979;48.306;9.830;2022-12-07T10:25:54;4.30;99.90
21635;DHT22;10979;48.306;9.830;2022-12-07T10:28:21;4.10;99.90
21635;DHT22;10979;48.306;9.830;2022-12-07T10:31:03;4.20;99.90
21635;DHT22;10979;48.306;9.830;2022-12-07T10:33:55;4.20;99.90
21635;DHT22;10979;48.306;9.830;2022-12-07T10:36:36;4.20;99.90
21635;DHT22;10979;48.306;9.830;2022-12-07T10:39:14;4.30;99.90
21635;DHT22;10979;48.306;9.830;2022-12-07T10:44:23;5.10;99.90
21635;DHT22;10979;48.306;9.830;2022-12-07T10:47:04;5.40;99.90
21635;DHT22;10979;48.306;9.830;2022-12-07T11:03:53;6.20;99.90
21635;DHT22;10979;48.306;9.830;2022-12-07T11:20:42;6.30;99.90
21635;DHT22;10979;48.306;9.830;2022-12-07T11:28:54;6.50;99.90
21635;DHT22;10979;48.306;9.830;2022-12-07T11:37:21;6.90;99.90
21635;DHT22;10979;48.306;9.830;2022-12-07T11:39:50;7.00;99.90
21635;DHT22;10979;48.306;9.830;2022-12-07T11:42:29;6.80;99.90
21635;DHT22;10979;48.306;9.830;2022-12-07T11:45:02;6.90;99.90
21635;DHT22;10979;48.306;9.830;2022-12-07T11:48:21;6.50;99.90
21635;DHT22;10979;48.306;9.830;2022-12-07T11:53:22;6.90;99.90
21635;DHT22;10979;48.306;9.830;2022-12-07T11:56:09;6.90;99.90
21635;DHT22;10979;48.306;9.830;2022-12-07T11:58:59;7.00;99.90
21635;DHT22;10979;48.306;9.830;2022-12-07T12:04:38;6.40;99.90
21635;DHT22;10979;48.306;9.830;2022-12-07T12:07:07;6.60;99.90
21635;DHT22;10979;48.306;9.830;2022-12-07T12:12:54;6.50;99.90
21635;DHT22;10979;48.306;9.830;2022-12-07T12:16:10;6.20;99.90
21635;DHT22;10979;48.306;9.830;2022-12-07T12:21:27;6.10;99.90
21635;DHT22;10979;48.306;9.830;2022-12-07T12:23:59;6.10;99.90
21635;DHT22;10979;48.306;9.830;2022-12-07T12:26:30;6.40;99.90
21635;DHT22;10979;48.306;9.830;2022-12-07T12:29:15;6.70;99.90
21635;DHT22;10979;48.306;9.830;2022-12-07T12:31:43;6.40;99.90
21635;DHT22;10979;48.306;9.830;2022-12-07T12:34:40;5.90;99.90
21635;DHT22;10979;48.306;9.830;2022-12-07T12:42:44;5.90;99.90
21635;DHT22;10979;48.306;9.830;2022-12-07T12:45:22;6.00;99.90
21635;DHT22;10979;48.306;9.830;2022-12-07T12:48:00;6.20;99.90
21635;DHT22;10979;48.306;9.830;2022-12-07T12:50:35;6.10;99.90
21635;DHT22;10979;48.306;9.830;2022-12-07T13:01:30;6.00;99.90
21635;DHT22;10979;48.306;9.830;2022-12-07T13:03:34;5.80;99.90
21635;DHT22;10979;48.306;9.830;2022-12-07T13:08:45;5.90;99.90
21635;DHT22;10979;48.306;9.830;2022-12-07T13:11:36;5.90;99.90
21635;DHT22;10979;48.306;9.830;2022-12-07T13:14:39;6.00;99.90
21635;DHT22;10979;48.306;9.830;2022-12-07T13:17:11;5.50;99.90
21635;DHT22;10979;48.306;9.830;2022-12-07T13:19:53;5.30;99.90
21635;DHT22;10979;48.306;9.830;2022-12-07T13:22:46;5.20;99.90
21635;DHT22;10979;48.306;9.830;2022-12-07T13:25:29;5.40;99.90
21635;DHT22;10979;48.306;9.830;2022-12-07T13:28:22;5.40;99.90
21635;DHT22;10979;48.306;9.830;2022-12-07T13:31:02;5.20;99.90
21635;DHT22;10979;48.306;9.830;2022-12-07T13:33:29;5.20;99.90
21635;DHT22;10979;48.306;9.830;2022-12-07T13:35:56;5.10;99.90
21635;DHT22;10979;48.306;9.830;2022-12-07T13:38:29;5.10;99.90
21635;DHT22;10979;48.306;9.830;2022-12-07T13:41:14;5.00;99.90
21635;DHT22;10979;48.306;9.830;2022-12-07T13:44:01;5.00;99.90
21635;DHT22;10979;48.306;9.830;2022-12-07T13:47:22;4.90;99.90
21635;DHT22;10979;48.306;9.830;2022-12-07T13:49:30;4.90;99.90
21635;DHT22;10979;48.306;9.830;2022-12-07T13:52:19;4.80;99.90
21635;DHT22;10979;48.306;9.830;2022-12-07T13:55:21;4.80;99.90
21635;DHT22;10979;48.306;9.830;2022-12-07T13:57:51;4.70;99.90
21635;DHT22;10979;48.306;9.830;2022-12-07T14:00:28;4.60;99.90
21635;DHT22;10979;48.306;9.830;2022-12-07T14:05:27;4.50;99.90
21635;DHT22;10979;48.306;9.830;2022-12-07T14:08:04;4.40;99.90
21635;DHT22;10979;48.306;9.830;2022-12-07T14:13:00;4.20;99.90
21635;DHT22;10979;48.306;9.830;2022-12-07T14:15:31;4.10;99.90
21635;DHT22;10979;48.306;9.830;2022-12-07T14:17:58;3.90;99.90
21635;DHT22;10979;48.306;9.830;2022-12-07T14:23:00;3.90;99.90
21635;DHT22;10979;48.306;9.830;2022-12-07T14:25:45;3.80;99.90
21635;DHT22;10979;48.306;9.830;2022-12-07T14:28:28;3.90;99.90
21635;DHT22;10979;48.306;9.830;2022-12-07T14:30:54;3.80;99.90
21635;DHT22;10979;48.306;9.830;2022-12-07T14:33:21;3.80;99.90
21635;DHT22;10979;48.306;9.830;2022-12-07T14:35:47;3.70;99.90
21635;DHT22;10979;48.306;9.830;2022-12-07T14:38:12;3.70;99.90
21635;DHT22;10979;48.306;9.830;2022-12-07T14:40:38;3.60;99.90
21635;DHT22;10979;48.306;9.830;2022-12-07T14:43:12;3.60;99.90
21635;DHT22;10979;48.306;9.830;2022-12-07T14:45:39;3.50;99.90
21635;DHT22;10979;48.306;9.830;2022-12-07T14:48:06;3.40;99.90
21635;DHT22;10979;48.306;9.830;2022-12-07T14:50:36;3.50;99.90
21635;DHT22;10979;48.306;9.830;2022-12-07T14:53:09;3.50;99.90
21635;DHT22;10979;48.306;9.830;2022-12-07T14:55:35;3.40;99.90
21635;DHT22;10979;48.306;9.830;2022-12-07T14:58:01;3.30;99.90
21635;DHT22;10979;48.306;9.830;2022-12-07T15:00:28;3.20;99.90
21635;DHT22;10979;48.306;9.830;2022-12-07T15:02:54;3.20;99.90
21635;DHT22;10979;48.306;9.830;2022-12-07T15:05:20;3.00;99.90
21635;DHT22;10979;48.306;9.830;2022-12-07T15:07:49;2.80;99.90
21635;DHT22;10979;48.306;9.830;2022-12-07T15:10:18;2.80;99.90
21635;DHT22;10979;48.306;9.830;2022-12-07T15:12:44;2.80;99.90
21635;DHT22;10979;48.306;9.830;2022-12-07T15:15:10;2.80;99.90
21635;DHT22;10979;48.306;9.830;2022-12-07T15:17:35;2.80;99.90
21635;DHT22;10979;48.306;9.830;2022-12-07T15:20:01;2.70;99.90
21635;DHT22;10979;48.306;9.830;2022-12-07T15:22:27;2.70;99.90
21635;DHT22;10979;48.306;9.830;2022-12-07T15:24:52;2.60;99.90
21635;DHT22;10979;48.306;9.830;2022-12-07T15:27:18;2.60;99.90
21635;DHT22;10979;48.306;9.830;2022-12-07T15:29:44;2.50;99.90
21635;DHT22;10979;48.306;9.830;2022-12-07T15:32:09;2.50;99.90
21635;DHT22;10979;48.306;9.830;2022-12-07T15:34:35;2.40;99.90
21635;DHT22;10979;48.306;9.830;2022-12-07T15:37:00;2.30;99.90
21635;DHT22;10979;48.306;9.830;2022-12-07T15:39:26;2.10;99.90
21635;DHT22;10979;48.306;9.830;2022-12-07T15:41:51;2.00;99.90
21635;DHT22;10979;48.306;9.830;2022-12-07T15:44:17;1.90;99.90
21635;DHT22;10979;48.306;9.830;2022-12-07T15:47:01;1.80;99.90
21635;DHT22;10979;48.306;9.830;2022-12-07T15:49:27;1.70;99.90
21635;DHT22;10979;48.306;9.830;2022-12-07T15:51:53;1.70;99.90
21635;DHT22;10979;48.306;9.830;2022-12-07T15:54:21;1.70;99.90
21635;DHT22;10979;48.306;9.830;2022-12-07T15:56:47;1.70;99.90
21635;DHT22;10979;48.306;9.830;2022-12-07T15:59:13;1.60;99.90
21635;DHT22;10979;48.306;9.830;2022-12-07T16:01:39;1.60;99.90
21635;DHT22;10979;48.306;9.830;2022-12-07T16:04:04;1.60;99.90
21635;DHT22;10979;48.306;9.830;2022-12-07T16:06:30;1.60;99.90
21635;DHT22;10979;48.306;9.830;2022-12-07T16:08:56;1.50;99.90
21635;DHT22;10979;48.306;9.830;2022-12-07T16:11:21;1.40;99.90
21635;DHT22;10979;48.306;9.830;2022-12-07T16:13:47;1.40;99.90
21635;DHT22;10979;48.306;9.830;2022-12-07T16:16:15;1.50;99.90
21635;DHT22;10979;48.306;9.830;2022-12-07T16:18:43;1.40;99.90
21635;DHT22;10979;48.306;9.830;2022-12-07T16:21:09;1.40;99.90
21635;DHT22;10979;48.306;9.830;2022-12-07T16:23:35;1.50;99.90
21635;DHT22;10979;48.306;9.830;2022-12-07T16:26:08;1.50;99.90
21635;DHT22;10979;48.306;9.830;2022-12-07T16:28:35;1.50;99.90
21635;DHT22;10979;48.306;9.830;2022-12-07T16:31:09;1.40;99.90
21635;DHT22;10979;48.306;9.830;2022-12-07T16:33:36;1.40;99.90
21635;DHT22;10979;48.306;9.830;2022-12-07T16:36:04;1.40;99.90
21635;DHT22;10979;48.306;9.830;2022-12-07T16:38:30;1.30;99.90
21635;DHT22;10979;48.306;9.830;2022-12-07T16:40:55;1.20;99.90
21635;DHT22;10979;48.306;9.830;2022-12-07T16:43:21;1.20;99.90
21635;DHT22;10979;48.306;9.830;2022-12-07T16:45:47;1.20;99.90
21635;DHT22;10979;48.306;9.830;2022-12-07T16:48:17;1.20;99.90
21635;DHT22;10979;48.306;9.830;2022-12-07T16:50:43;1.20;99.90
21635;DHT22;10979;48.306;9.830;2022-12-07T16:53:10;1.20;99.90
21635;DHT22;10979;48.306;9.830;2022-12-07T16:55:37;1.20;99.90
21635;DHT22;10979;48.306;9.830;2022-12-07T16:58:03;1.30;99.90
21635;DHT22;10979;48.306;9.830;2022-12-07T17:00:29;1.30;99.90
21635;DHT22;10979;48.306;9.830;2022-12-07T17:02:54;1.20;99.90
21635;DHT22;10979;48.306;9.830;2022-12-07T17:05:20;1.20;99.90
21635;DHT22;10979;48.306;9.830;2022-12-07T17:07:46;1.20;99.90
21635;DHT22;10979;48.306;9.830;2022-12-07T17:10:11;1.20;99.90
21635;DHT22;10979;48.306;9.830;2022-12-07T17:12:37;1.20;99.90
21635;DHT22;10979;48.306;9.830;2022-12-07T17:15:03;1.20;99.90
21635;DHT22;10979;48.306;9.830;2022-12-07T17:20:18;1.10;99.90
21635;DHT22;10979;48.306;9.830;2022-12-07T17:22:45;1.10;99.90
21635;DHT22;10979;48.306;9.830;2022-12-07T17:25:11;1.10;99.90
21635;DHT22;10979;48.306;9.830;2022-12-07T17:27:37;1.00;99.90
21635;DHT22;10979;48.306;9.830;2022-12-07T17:30:06;1.00;99.90
21635;DHT22;10979;48.306;9.830;2022-12-07T17:32:32;1.10;99.90
21635;DHT22;10979;48.306;9.830;2022-12-07T17:34:58;1.10;99.90
21635;DHT22;10979;48.306;9.830;2022-12-07T17:37:24;1.00;99.90
21635;DHT22;10979;48.306;9.830;2022-12-07T17:39:51;1.00;99.90